sensor_id;sensor_type;location;lat;lon;timestamp;pressure;altitude;pressure_sealevel;temperature;humidity
30682;BME280;17439;48.092;11.842;2023-02-21T00:01:50;95882.59;;;8.10;54.79
30682;BME280;17439;48.092;11.842;2023-02-21T00:04:17;95881.50;;;8.11;54.70
30682;BME280;17439;48.092;11.842;2023-02-21T00:06:44;95878.78;;;8.11;54.50
30682;BME280;17439;48.092;11.842;2023-02-21T00:09:10;95885.81;;;8.12;54.72
30682;BME280;17439;48.092;11.842;2023-02-21T00:11:41;95880.94;;;8.14;54.10
30682;BME280;17439;48.092;11.842;2023-02-21T00:14:08;95876.34;;;8.14;54.71
30682;BME280;17439;48.092;11.842;2023-02-21T00:16:35;95879.84;;;8.15;54.68
30682;BME280;17439;48.092;11.842;2023-02-21T00:19:03;95876.34;;;8.14;54.60
30682;BME280;17439;48.092;11.842;2023-02-21T00:21:29;95877.16;;;8.15;54.75
30682;BME280;17439;48.092;11.842;2023-02-21T00:23:56;95875.53;;;8.14;54.60
30682;BME280;17439;48.092;11.842;2023-02-21T00:26:23;95876.91;;;8.11;54.33
30682;BME280;17439;48.092;11.842;2023-02-21T00:28:49;95869.34;;;8.13;54.58
30682;BME280;17439;48.092;11.842;2023-02-21T00:31:19;95875.53;;;8.14;53.69
30682;BME280;17439;48.092;11.842;2023-02-21T00:33:46;95872.03;;;8.13;54.28
30682;BME280;17439;48.092;11.842;2023-02-21T00:36:15;95877.16;;;8.15;54.02
30682;BME280;17439;48.092;11.842;2023-02-21T00:38:42;95874.16;;;8.16;54.61
30682;BME280;17439;48.092;11.842;2023-02-21T00:41:09;95869.56;;;8.17;54.44
30682;BME280;17439;48.092;11.842;2023-02-21T00:43:35;95866.84;;;8.17;54.65
30682;BME280;17439;48.092;11.842;2023-02-21T00:46:02;95868.75;;;8.16;54.44
30682;BME280;17439;48.092;11.842;2023-02-21T00:48:30;95868.25;;;8.14;54.68
30682;BME280;17439;48.092;11.842;2023-02-21T00:50:56;95867.44;;;8.14;54.45
30682;BME280;17439;48.092;11.842;2023-02-21T00:53:23;95866.91;;;8.12;54.50
30682;BME280;17439;48.092;11.842;2023-02-21T00:55:50;95862.59;;;8.11;54.69
30682;BME280;17439;48.092;11.842;2023-02-21T00:58:20;95865.28;;;8.11;54.30
30682;BME280;17439;48.092;11.842;2023-02-21T01:00:47;95860.72;;;8.11;54.70
30682;BME280;17439;48.092;11.842;2023-02-21T01:03:13;95866.13;;;8.11;54.87
30682;BME280;17439;48.092;11.842;2023-02-21T01:05:40;95857.19;;;8.11;54.77
30682;BME280;17439;48.092;11.842;2023-02-21T01:08:06;95865.28;;;8.11;54.66
30682;BME280;17439;48.092;11.842;2023-02-21T01:10:33;95855.06;;;8.08;54.74
30682;BME280;17439;48.092;11.842;2023-02-21T01:13:00;95865.06;;;8.07;54.65
30682;BME280;17439;48.092;11.842;2023-02-21T01:15:26;95854.03;;;8.04;54.69
30682;BME280;17439;48.092;11.842;2023-02-21T01:17:53;95846.50;;;8.01;54.71
30682;BME280;17439;48.092;11.842;2023-02-21T01:20:20;95857.59;;;7.99;54.74
30682;BME280;17439;48.092;11.842;2023-02-21T01:22:46;95842.22;;;7.94;54.77
30682;BME280;17439;48.092;11.842;2023-02-21T01:25:14;95844.13;;;7.94;54.80
30682;BME280;17439;48.092;11.842;2023-02-21T01:27:40;95843.09;;;7.90;54.82
30682;BME280;17439;48.092;11.842;2023-02-21T01:30:07;95847.16;;;7.87;54.92
30682;BME280;17439;48.092;11.842;2023-02-21T01:32:34;95852.03;;;7.85;54.93
30682;BME280;17439;48.092;11.842;2023-02-21T01:35:01;95843.69;;;7.81;54.96
30682;BME280;17439;48.092;11.842;2023-02-21T01:37:27;95838.59;;;7.80;55.02
30682;BME280;17439;48.092;11.842;2023-02-21T01:39:54;95836.72;;;7.75;54.95
30682;BME280;17439;48.092;11.842;2023-02-21T01:42:20;95837.28;;;7.72;54.90
30682;BME280;17439;48.092;11.842;2023-02-21T01:44:47;95839.75;;;7.69;54.90
30682;BME280;17439;48.092;11.842;2023-02-21T01:47:14;95827.41;;;7.62;54.89
30682;BME280;17439;48.092;11.842;2023-02-21T01:49:41;95829.88;;;7.59;55.16
30682;BME280;17439;48.092;11.842;2023-02-21T01:52:09;95827.19;;;7.54;55.04
30682;BME280;17439;48.092;11.842;2023-02-21T01:54:42;95827.22;;;7.49;54.68
30682;BME280;17439;48.092;11.842;2023-02-21T01:57:11;95823.50;;;7.44;55.20
30682;BME280;17439;48.092;11.842;2023-02-21T01:59:38;95815.41;;;7.39;55.18
30682;BME280;17439;48.092;11.842;2023-02-21T02:02:16;95813.56;;;7.35;54.86
30682;BME280;17439;48.092;11.842;2023-02-21T02:04:44;95809.03;;;7.30;55.30
30682;BME280;17439;48.092;11.842;2023-02-21T02:07:13;95814.16;;;7.26;55.39
30682;BME280;17439;48.092;11.842;2023-02-21T02:09:40;95817.69;;;7.22;55.56
30682;BME280;17439;48.092;11.842;2023-02-21T02:12:20;95810.44;;;7.17;54.82
30682;BME280;17439;48.092;11.842;2023-02-21T02:23:05;95804.06;;;7.03;55.71
30682;BME280;17439;48.092;11.842;2023-02-21T02:28:25;95805.78;;;6.94;55.59
30682;BME280;17439;48.092;11.842;2023-02-21T02:31:32;95802.03;;;6.84;55.02
30682;BME280;17439;48.092;11.842;2023-02-21T02:34:39;95804.78;;;6.79;55.05
30682;BME280;17439;48.092;11.842;2023-02-21T02:37:34;95804.25;;;6.72;55.33
30682;BME280;17439;48.092;11.842;2023-02-21T02:42:58;95802.69;;;6.61;55.38
30682;BME280;17439;48.092;11.842;2023-02-21T02:45:48;95794.66;;;6.56;56.10
30682;BME280;17439;48.092;11.842;2023-02-21T02:48:21;95797.34;;;6.50;55.92
30682;BME280;17439;48.092;11.842;2023-02-21T02:50:49;95793.59;;;6.46;56.01
30682;BME280;17439;48.092;11.842;2023-02-21T02:53:24;95785.56;;;6.41;56.07
30682;BME280;17439;48.092;11.842;2023-02-21T02:55:55;95787.97;;;6.38;56.10
30682;BME280;17439;48.092;11.842;2023-02-21T02:58:27;95779.13;;;6.32;56.20
30682;BME280;17439;48.092;11.842;2023-02-21T03:01:13;95788.81;;;6.28;55.96
30682;BME280;17439;48.092;11.842;2023-02-21T03:04:03;95781.56;;;6.23;56.23
30682;BME280;17439;48.092;11.842;2023-02-21T03:14:28;95784.06;;;6.09;56.70
30682;BME280;17439;48.092;11.842;2023-02-21T03:17:01;95780.28;;;6.05;56.82
30682;BME280;17439;48.092;11.842;2023-02-21T03:19:34;95784.59;;;6.01;56.76
30682;BME280;17439;48.092;11.842;2023-02-21T03:22:07;95795.63;;;5.99;56.98
30682;BME280;17439;48.092;11.842;2023-02-21T03:24:37;95788.91;;;5.97;57.09
30682;BME280;17439;48.092;11.842;2023-02-21T03:27:07;95791.31;;;5.93;57.11
30682;BME280;17439;48.092;11.842;2023-02-21T03:29:53;95789.19;;;5.90;57.07
30682;BME280;17439;48.092;11.842;2023-02-21T03:32:29;95790.78;;;5.86;56.95
30682;BME280;17439;48.092;11.842;2023-02-21T03:34:58;95785.69;;;5.85;57.14
30682;BME280;17439;48.092;11.842;2023-02-21T03:37:42;95785.44;;;5.81;56.95
30682;BME280;17439;48.092;11.842;2023-02-21T03:40:21;95782.47;;;5.77;57.28
30682;BME280;17439;48.092;11.842;2023-02-21T03:42:51;95787.31;;;5.75;57.46
30682;BME280;17439;48.092;11.842;2023-02-21T03:45:19;95779.78;;;5.72;57.64
30682;BME280;17439;48.092;11.842;2023-02-21T03:48:04;95778.72;;;5.68;57.69
30682;BME280;17439;48.092;11.842;2023-02-21T03:50:33;95779.00;;;5.67;57.66
30682;BME280;17439;48.092;11.842;2023-02-21T03:52:59;95781.94;;;5.65;57.80
30682;BME280;17439;48.092;11.842;2023-02-21T03:55:28;95797.53;;;5.58;57.15
30682;BME280;17439;48.092;11.842;2023-02-21T03:57:55;95790.03;;;5.60;57.83
30682;BME280;17439;48.092;11.842;2023-02-21T04:00:23;95785.72;;;5.59;57.89
30682;BME280;17439;48.092;11.842;2023-02-21T04:02:52;95789.47;;;5.58;57.82
30682;BME280;17439;48.092;11.842;2023-02-21T04:05:28;95791.63;;;5.56;57.86
30682;BME280;17439;48.092;11.842;2023-02-21T04:07:55;95791.13;;;5.54;58.06
30682;BME280;17439;48.092;11.842;2023-02-21T04:10:21;95788.41;;;5.54;58.11
30682;BME280;17439;48.092;11.842;2023-02-21T04:12:48;95782.22;;;5.53;58.25
30682;BME280;17439;48.092;11.842;2023-02-21T04:15:15;95784.09;;;5.53;58.25
30682;BME280;17439;48.092;11.842;2023-02-21T04:17:42;95796.75;;;5.52;58.22
30682;BME280;17439;48.092;11.842;2023-02-21T04:20:09;95789.50;;;5.53;58.43
30682;BME280;17439;48.092;11.842;2023-02-21T04:22:41;95779.53;;;5.53;58.58
30682;BME280;17439;48.092;11.842;2023-02-21T04:25:13;95786.53;;;5.54;58.52
30682;BME280;17439;48.092;11.842;2023-02-21T04:27:47;95777.41;;;5.55;58.69
30682;BME280;17439;48.092;11.842;2023-02-21T04:30:14;95779.81;;;5.57;58.71
30682;BME280;17439;48.092;11.842;2023-02-21T04:32:41;95790.56;;;5.57;58.83
30682;BME280;17439;48.092;11.842;2023-02-21T04:35:11;95779.28;;;5.60;58.97
30682;BME280;17439;48.092;11.842;2023-02-21T04:37:39;95778.19;;;5.61;59.22
30682;BME280;17439;48.092;11.842;2023-02-21T04:40:10;95776.03;;;5.63;59.49
30682;BME280;17439;48.092;11.842;2023-02-21T04:42:37;95776.56;;;5.65;59.59
30682;BME280;17439;48.092;11.842;2023-02-21T04:45:04;95774.66;;;5.71;59.61
30682;BME280;17439;48.092;11.842;2023-02-21T04:47:31;95772.78;;;5.76;59.73
30682;BME280;17439;48.092;11.842;2023-02-21T04:49:57;95767.91;;;5.84;59.83
30682;BME280;17439;48.092;11.842;2023-02-21T04:52:24;95757.69;;;5.91;59.75
30682;BME280;17439;48.092;11.842;2023-02-21T04:54:50;95760.91;;;5.98;59.86
30682;BME280;17439;48.092;11.842;2023-02-21T04:57:17;95760.66;;;6.05;59.67
30682;BME280;17439;48.092;11.842;2023-02-21T04:59:43;95756.84;;;6.11;59.53
30682;BME280;17439;48.092;11.842;2023-02-21T05:02:10;95751.97;;;6.18;59.25
30682;BME280;17439;48.092;11.842;2023-02-21T05:04:37;95750.88;;;6.24;59.17
30682;BME280;17439;48.092;11.842;2023-02-21T05:07:04;95752.75;;;6.29;59.04
30682;BME280;17439;48.092;11.842;2023-02-21T05:09:31;95752.19;;;6.32;58.59
30682;BME280;17439;48.092;11.842;2023-02-21T05:11:58;95744.34;;;6.35;58.72
30682;BME280;17439;48.092;11.842;2023-02-21T05:14:24;95745.16;;;6.41;58.66
30682;BME280;17439;48.092;11.842;2023-02-21T05:16:51;95746.47;;;6.44;58.61
30682;BME280;17439;48.092;11.842;2023-02-21T05:19:21;95741.59;;;6.46;57.80
30682;BME280;17439;48.092;11.842;2023-02-21T05:21:48;95747.53;;;6.48;58.45
30682;BME280;17439;48.092;11.842;2023-02-21T05:24:15;95740.25;;;6.48;58.36
30682;BME280;17439;48.092;11.842;2023-02-21T05:26:41;95733.78;;;6.49;58.18
30682;BME280;17439;48.092;11.842;2023-02-21T05:29:08;95735.66;;;6.49;58.29
30682;BME280;17439;48.092;11.842;2023-02-21T05:31:35;95733.25;;;6.47;58.18
30682;BME280;17439;48.092;11.842;2023-02-21T05:34:02;95737.03;;;6.46;57.92
30682;BME280;17439;48.092;11.842;2023-02-21T05:36:28;95741.59;;;6.46;58.08
30682;BME280;17439;48.092;11.842;2023-02-21T05:38:55;95742.44;;;6.46;57.94
30682;BME280;17439;48.092;11.842;2023-02-21T05:41:22;95738.13;;;6.45;57.87
30682;BME280;17439;48.092;11.842;2023-02-21T05:43:49;95742.69;;;6.45;58.06
30682;BME280;17439;48.092;11.842;2023-02-21T05:46:18;95740.00;;;6.45;57.83
30682;BME280;17439;48.092;11.842;2023-02-21T05:48:45;95740.81;;;6.45;57.87
30682;BME280;17439;48.092;11.842;2023-02-21T05:51:13;95747.28;;;6.44;57.64
30682;BME280;17439;48.092;11.842;2023-02-21T05:53:40;95742.69;;;6.45;57.75
30682;BME280;17439;48.092;11.842;2023-02-21T05:56:07;95747.28;;;6.44;57.74
30682;BME280;17439;48.092;11.842;2023-02-21T05:58:36;95743.78;;;6.44;57.73
30682;BME280;17439;48.092;11.842;2023-02-21T06:01:03;95742.19;;;6.43;57.72
30682;BME280;17439;48.092;11.842;2023-02-21T06:03:30;95737.88;;;6.42;57.68
30682;BME280;17439;48.092;11.842;2023-02-21T06:06:00;95742.47;;;6.41;57.72
30682;BME280;17439;48.092;11.842;2023-02-21T06:08:26;95743.25;;;6.42;57.79
30682;BME280;17439;48.092;11.842;2023-02-21T06:10:53;95741.13;;;6.39;57.65
30682;BME280;17439;48.092;11.842;2023-02-21T06:13:20;95743.81;;;6.39;57.93
30682;BME280;17439;48.092;11.842;2023-02-21T06:15:47;95747.56;;;6.38;57.86
30682;BME280;17439;48.092;11.842;2023-02-21T06:18:15;95748.41;;;6.38;57.96
30682;BME280;17439;48.092;11.842;2023-02-21T06:20:42;95747.84;;;6.36;57.84
30682;BME280;17439;48.092;11.842;2023-02-21T06:23:09;95740.88;;;6.35;58.00
30682;BME280;17439;48.092;11.842;2023-02-21T06:25:36;95747.84;;;6.36;58.09
30682;BME280;17439;48.092;11.842;2023-02-21T06:28:02;95751.66;;;6.35;57.85
30682;BME280;17439;48.092;11.842;2023-02-21T06:30:29;95753.22;;;6.36;57.99
30682;BME280;17439;48.092;11.842;2023-02-21T06:32:56;95754.34;;;6.35;57.96
30682;BME280;17439;48.092;11.842;2023-02-21T06:35:22;95755.66;;;6.38;58.20
30682;BME280;17439;48.092;11.842;2023-02-21T06:37:49;95756.75;;;6.37;58.01
30682;BME280;17439;48.092;11.842;2023-02-21T06:40:16;95754.84;;;6.37;58.13
30682;BME280;17439;48.092;11.842;2023-02-21T06:42:42;95759.97;;;6.39;58.18
30682;BME280;17439;48.092;11.842;2023-02-21T06:45:09;95766.69;;;6.41;58.24
30682;BME280;17439;48.092;11.842;2023-02-21T06:47:36;95761.03;;;6.43;58.10
30682;BME280;17439;48.092;11.842;2023-02-21T06:50:03;95766.94;;;6.45;58.09
30682;BME280;17439;48.092;11.842;2023-02-21T06:52:30;95768.53;;;6.46;58.27
30682;BME280;17439;48.092;11.842;2023-02-21T06:54:57;95773.66;;;6.47;58.08
30682;BME280;17439;48.092;11.842;2023-02-21T06:57:23;95778.75;;;6.49;58.23
30682;BME280;17439;48.092;11.842;2023-02-21T06:59:50;95781.44;;;6.49;58.06
30682;BME280;17439;48.092;11.842;2023-02-21T07:02:18;95789.53;;;6.49;58.04
30682;BME280;17439;48.092;11.842;2023-02-21T07:04:45;95790.34;;;6.49;58.15
30682;BME280;17439;48.092;11.842;2023-02-21T07:07:13;95788.75;;;6.48;58.20
30682;BME280;17439;48.092;11.842;2023-02-21T07:09:39;95790.34;;;6.49;58.17
30682;BME280;17439;48.092;11.842;2023-02-21T07:12:06;95794.91;;;6.49;58.35
30682;BME280;17439;48.092;11.842;2023-02-21T07:14:33;95790.34;;;6.49;58.42
30682;BME280;17439;48.092;11.842;2023-02-21T07:17:00;95798.16;;;6.51;58.77
30682;BME280;17439;48.092;11.842;2023-02-21T07:19:26;95797.63;;;6.54;58.75
30682;BME280;17439;48.092;11.842;2023-02-21T07:21:53;95794.91;;;6.54;59.02
30682;BME280;17439;48.092;11.842;2023-02-21T07:24:20;95792.47;;;6.58;59.09
30682;BME280;17439;48.092;11.842;2023-02-21T07:26:47;95791.91;;;6.61;59.05
30682;BME280;17439;48.092;11.842;2023-02-21T07:29:14;95797.28;;;6.66;59.38
30682;BME280;17439;48.092;11.842;2023-02-21T07:31:40;95793.75;;;6.70;59.40
30682;BME280;17439;48.092;11.842;2023-02-21T07:34:07;95793.44;;;6.77;59.39
30682;BME280;17439;48.092;11.842;2023-02-21T07:36:36;95789.91;;;6.82;58.68
30682;BME280;17439;48.092;11.842;2023-02-21T07:39:05;95786.91;;;6.88;59.30
30682;BME280;17439;48.092;11.842;2023-02-21T07:41:32;95787.41;;;6.96;59.35
30682;BME280;17439;48.092;11.842;2023-02-21T07:43:58;95794.91;;;7.04;59.35
30682;BME280;17439;48.092;11.842;2023-02-21T07:46:27;95801.31;;;7.13;58.99
30682;BME280;17439;48.092;11.842;2023-02-21T07:48:54;95805.03;;;7.22;59.44
30682;BME280;17439;48.092;11.842;2023-02-21T07:51:21;95804.69;;;7.34;59.40
30682;BME280;17439;48.092;11.842;2023-02-21T07:53:48;95804.63;;;7.44;59.30
30682;BME280;17439;48.092;11.842;2023-02-21T07:56:14;95809.91;;;7.55;59.41
30682;BME280;17439;48.092;11.842;2023-02-21T07:58:41;95803.63;;;7.65;59.40
30682;BME280;17439;48.092;11.842;2023-02-21T08:01:07;95813.22;;;7.76;59.11
30682;BME280;17439;48.092;11.842;2023-02-21T08:03:35;95807.75;;;7.86;59.20
30682;BME280;17439;48.092;11.842;2023-02-21T08:06:01;95809.56;;;7.96;59.09
30682;BME280;17439;48.092;11.842;2023-02-21T08:08:28;95812.13;;;8.06;59.10
30682;BME280;17439;48.092;11.842;2023-02-21T08:10:55;95805.81;;;8.16;58.70
30682;BME280;17439;48.092;11.842;2023-02-21T08:13:21;95812.22;;;8.25;58.72
30682;BME280;17439;48.092;11.842;2023-02-21T08:15:48;95813.69;;;8.36;58.67
30682;BME280;17439;48.092;11.842;2023-02-21T08:18:16;95816.34;;;8.47;57.99
30682;BME280;17439;48.092;11.842;2023-02-21T08:20:43;95811.91;;;8.56;58.48
30682;BME280;17439;48.092;11.842;2023-02-21T08:23:10;95817.97;;;8.67;58.14
30682;BME280;17439;48.092;11.842;2023-02-21T08:25:37;95804.06;;;8.79;58.18
30682;BME280;17439;48.092;11.842;2023-02-21T08:28:04;95810.94;;;8.90;58.08
30682;BME280;17439;48.092;11.842;2023-02-21T08:30:30;95804.28;;;9.01;58.04
30682;BME280;17439;48.092;11.842;2023-02-21T08:32:57;95804.66;;;9.14;57.46
30682;BME280;17439;48.092;11.842;2023-02-21T08:35:23;95812.31;;;9.25;57.33
30682;BME280;17439;48.092;11.842;2023-02-21T08:37:50;95812.69;;;9.38;57.43
30682;BME280;17439;48.092;11.842;2023-02-21T08:40:20;95807.63;;;9.50;56.08
30682;BME280;17439;48.092;11.842;2023-02-21T08:42:51;95809.88;;;9.62;55.22
30682;BME280;17439;48.092;11.842;2023-02-21T08:45:19;95796.66;;;9.74;56.34
30682;BME280;17439;48.092;11.842;2023-02-21T08:47:46;95804.31;;;9.86;56.80
30682;BME280;17439;48.092;11.842;2023-02-21T08:50:14;95808.19;;;9.99;56.59
30682;BME280;17439;48.092;11.842;2023-02-21T08:52:40;95800.94;;;10.08;55.84
30682;BME280;17439;48.092;11.842;2023-02-21T08:55:07;95805.06;;;10.20;55.02
30682;BME280;17439;48.092;11.842;2023-02-21T08:57:33;95789.13;;;10.32;55.22
30682;BME280;17439;48.092;11.842;2023-02-21T09:00:00;95804.13;;;10.43;54.64
30682;BME280;17439;48.092;11.842;2023-02-21T09:02:27;95804.44;;;10.56;54.92
30682;BME280;17439;48.092;11.842;2023-02-21T09:04:53;95805.53;;;10.68;54.69
30682;BME280;17439;48.092;11.842;2023-02-21T09:07:23;95810.44;;;10.80;50.48
30682;BME280;17439;48.092;11.842;2023-02-21T09:09:49;95806.19;;;10.88;53.21
30682;BME280;17439;48.092;11.842;2023-02-21T09:12:16;95799.16;;;11.01;53.29
30682;BME280;17439;48.092;11.842;2023-02-21T09:14:43;95811.41;;;11.12;53.05
30682;BME280;17439;48.092;11.842;2023-02-21T09:17:11;95808.75;;;11.21;51.14
30682;BME280;17439;48.092;11.842;2023-02-21T09:19:39;95809.31;;;11.32;53.00
30682;BME280;17439;48.092;11.842;2023-02-21T09:22:09;95807.47;;;11.41;51.17
30682;BME280;17439;48.092;11.842;2023-02-21T09:24:36;95802.31;;;11.53;52.52
30682;BME280;17439;48.092;11.842;2023-02-21T09:27:03;95795.53;;;11.65;52.57
30682;BME280;17439;48.092;11.842;2023-02-21T09:29:33;95801.69;;;11.79;49.00
30682;BME280;17439;48.092;11.842;2023-02-21T09:32:12;95793.41;;;11.84;50.89
30682;BME280;17439;48.092;11.842;2023-02-21T09:34:39;95799.50;;;11.90;51.08
30682;BME280;17439;48.092;11.842;2023-02-21T09:37:05;95812.44;;;12.07;47.22
30682;BME280;17439;48.092;11.842;2023-02-21T09:39:32;95794.41;;;12.20;46.35
30682;BME280;17439;48.092;11.842;2023-02-21T09:41:59;95798.97;;;12.33;45.50
30682;BME280;17439;48.092;11.842;2023-02-21T09:44:26;95796.25;;;12.33;47.02
30682;BME280;17439;48.092;11.842;2023-02-21T09:46:57;95792.47;;;12.43;45.47
30682;BME280;17439;48.092;11.842;2023-02-21T09:49:36;95796.13;;;12.47;45.61
30682;BME280;17439;48.092;11.842;2023-02-21T09:52:17;95793.78;;;12.54;45.73
30682;BME280;17439;48.092;11.842;2023-02-21T09:54:52;95804.19;;;12.61;45.22
30682;BME280;17439;48.092;11.842;2023-02-21T09:57:21;95799.53;;;12.61;46.41
30682;BME280;17439;48.092;11.842;2023-02-21T09:59:48;95800.03;;;12.63;47.57
30682;BME280;17439;48.092;11.842;2023-02-21T10:08:25;95796.59;;;12.89;43.39
30682;BME280;17439;48.092;11.842;2023-02-21T10:10:57;95789.56;;;12.97;43.99
30682;BME280;17439;48.092;11.842;2023-02-21T10:13:55;95782.84;;;13.03;43.69
30682;BME280;17439;48.092;11.842;2023-02-21T10:16:39;95795.97;;;13.10;43.78
30682;BME280;17439;48.092;11.842;2023-02-21T10:19:20;95785.88;;;13.10;43.20
30682;BME280;17439;48.092;11.842;2023-02-21T10:21:49;95787.00;;;13.09;45.54
30682;BME280;17439;48.092;11.842;2023-02-21T10:24:24;95790.53;;;13.18;46.07
30682;BME280;17439;48.092;11.842;2023-02-21T10:27:04;95793.59;;;13.25;43.18
30682;BME280;17439;48.092;11.842;2023-02-21T10:29:52;95799.19;;;13.29;46.00
30682;BME280;17439;48.092;11.842;2023-02-21T10:32:21;95805.31;;;13.35;45.69
30682;BME280;17439;48.092;11.842;2023-02-21T10:34:48;95799.25;;;13.38;46.42
30682;BME280;17439;48.092;11.842;2023-02-21T10:37:26;95792.16;;;13.46;42.19
30682;BME280;17439;48.092;11.842;2023-02-21T10:39:59;95796.19;;;13.57;43.53
30682;BME280;17439;48.092;11.842;2023-02-21T10:42:33;95795.53;;;13.60;43.99
30682;BME280;17439;48.092;11.842;2023-02-21T10:45:03;95788.66;;;13.71;42.37
30682;BME280;17439;48.092;11.842;2023-02-21T10:47:47;95792.31;;;13.75;42.00
30682;BME280;17439;48.092;11.842;2023-02-21T10:53:07;95784.16;;;13.84;42.81
30682;BME280;17439;48.092;11.842;2023-02-21T10:55:34;95771.13;;;13.90;43.97
30682;BME280;17439;48.092;11.842;2023-02-21T10:58:09;95774.97;;;14.06;40.82
30682;BME280;17439;48.092;11.842;2023-02-21T11:00:43;95770.28;;;14.07;40.83
30682;BME280;17439;48.092;11.842;2023-02-21T11:03:30;95768.84;;;14.09;42.53
30682;BME280;17439;48.092;11.842;2023-02-21T11:05:57;95767.06;;;14.13;43.84
30682;BME280;17439;48.092;11.842;2023-02-21T11:08:35;95764.16;;;14.19;43.29
30682;BME280;17439;48.092;11.842;2023-02-21T11:11:03;95759.78;;;14.26;41.67
30682;BME280;17439;48.092;11.842;2023-02-21T11:13:31;95752.25;;;14.32;43.34
30682;BME280;17439;48.092;11.842;2023-02-21T11:16:11;95754.47;;;14.30;43.54
30682;BME280;17439;48.092;11.842;2023-02-21T11:18:41;95742.25;;;14.45;41.44
30682;BME280;17439;48.092;11.842;2023-02-21T11:21:16;95736.88;;;14.57;41.15
30682;BME280;17439;48.092;11.842;2023-02-21T11:23:55;95739.44;;;14.62;40.20
30682;BME280;17439;48.092;11.842;2023-02-21T11:26:22;95735.75;;;14.67;40.74
30682;BME280;17439;48.092;11.842;2023-02-21T11:28:50;95729.47;;;14.66;41.04
30682;BME280;17439;48.092;11.842;2023-02-21T11:31:35;95723.53;;;14.64;39.32
30682;BME280;17439;48.092;11.842;2023-02-21T11:34:06;95721.91;;;14.72;41.34
30682;BME280;17439;48.092;11.842;2023-02-21T11:36:37;95715.59;;;14.80;39.71
30682;BME280;17439;48.092;11.842;2023-02-21T11:39:14;95714.59;;;14.85;41.04
30682;BME280;17439;48.092;11.842;2023-02-21T11:41:51;95704.41;;;14.94;40.68
30682;BME280;17439;48.092;11.842;2023-02-21T11:44:39;95700.69;;;14.99;38.63
30682;BME280;17439;48.092;11.842;2023-02-21T11:47:26;95693.75;;;15.01;40.44
30682;BME280;17439;48.092;11.842;2023-02-21T11:50:06;95696.31;;;15.07;38.72
30682;BME280;17439;48.092;11.842;2023-02-21T11:52:38;95688.69;;;15.12;39.61
30682;BME280;17439;48.092;11.842;2023-02-21T11:55:32;95683.56;;;15.11;40.64
30682;BME280;17439;48.092;11.842;2023-02-21T11:58:10;95681.69;;;15.23;40.98
30682;BME280;17439;48.092;11.842;2023-02-21T12:06:29;95668.81;;;15.45;38.55
30682;BME280;17439;48.092;11.842;2023-02-21T12:11:47;95666.09;;;15.57;37.73
30682;BME280;17439;48.092;11.842;2023-02-21T12:14:33;95652.09;;;15.59;38.51
30682;BME280;17439;48.092;11.842;2023-02-21T12:25:31;95642.38;;;15.83;37.78
30682;BME280;17439;48.092;11.842;2023-02-21T12:31:12;95644.00;;;15.96;37.49
30682;BME280;17439;48.092;11.842;2023-02-21T12:36:45;95640.25;;;16.01;37.74
30682;BME280;17439;48.092;11.842;2023-02-21T12:47:45;95619.03;;;16.22;36.42
30682;BME280;17439;48.092;11.842;2023-02-21T12:50:19;95615.41;;;16.18;37.48
30682;BME280;17439;48.092;11.842;2023-02-21T12:52:55;95629.63;;;16.24;37.63
30682;BME280;17439;48.092;11.842;2023-02-21T12:55:26;95616.28;;;16.22;37.59
30682;BME280;17439;48.092;11.842;2023-02-21T13:00:45;95619.38;;;16.21;39.10
30682;BME280;17439;48.092;11.842;2023-02-21T13:03:39;95613.56;;;16.22;38.43
30682;BME280;17439;48.092;11.842;2023-02-21T13:06:31;95615.25;;;16.27;37.95
30682;BME280;17439;48.092;11.842;2023-02-21T13:14:46;95605.94;;;16.28;39.20
30682;BME280;17439;48.092;11.842;2023-02-21T13:17:15;95586.44;;;16.29;39.84
30682;BME280;17439;48.092;11.842;2023-02-21T13:19:47;95579.59;;;16.23;40.94
30682;BME280;17439;48.092;11.842;2023-02-21T13:26:15;95569.78;;;16.35;39.57
30682;BME280;17439;48.092;11.842;2023-02-21T13:28:45;95557.47;;;16.28;40.51
30682;BME280;17439;48.092;11.842;2023-02-21T13:31:22;95557.81;;;16.39;40.15
30682;BME280;17439;48.092;11.842;2023-02-21T13:33:51;95550.16;;;16.45;37.95
30682;BME280;17439;48.092;11.842;2023-02-21T13:41:44;95540.78;;;16.46;38.94
30682;BME280;17439;48.092;11.842;2023-02-21T14:02:59;95523.09;;;16.56;40.96
30682;BME280;17439;48.092;11.842;2023-02-21T14:08:25;95517.84;;;16.63;38.31
30682;BME280;17439;48.092;11.842;2023-02-21T14:10:59;95513.97;;;16.64;38.08
30682;BME280;17439;48.092;11.842;2023-02-21T14:13:37;95506.09;;;16.62;37.58
30682;BME280;17439;48.092;11.842;2023-02-21T14:21:18;95502.09;;;16.60;38.21
30682;BME280;17439;48.092;11.842;2023-02-21T14:23:57;95499.47;;;16.63;38.39
30682;BME280;17439;48.092;11.842;2023-02-21T14:29:34;95489.56;;;16.59;39.05
30682;BME280;17439;48.092;11.842;2023-02-21T14:37:11;95477.72;;;16.55;38.78
30682;BME280;17439;48.092;11.842;2023-02-21T14:39:42;95477.72;;;16.55;39.91
30682;BME280;17439;48.092;11.842;2023-02-21T14:50:35;95466.31;;;16.53;39.42
30682;BME280;17439;48.092;11.842;2023-02-21T14:53:22;95465.44;;;16.48;38.89
30682;BME280;17439;48.092;11.842;2023-02-21T14:56:08;95463.94;;;16.51;38.09
30682;BME280;17439;48.092;11.842;2023-02-21T15:04:29;95457.16;;;16.45;40.11
30682;BME280;17439;48.092;11.842;2023-02-21T15:07:07;95450.06;;;16.44;38.26
30682;BME280;17439;48.092;11.842;2023-02-21T15:09:36;95452.72;;;16.40;39.90
30682;BME280;17439;48.092;11.842;2023-02-21T15:12:13;95447.94;;;16.37;39.53
30682;BME280;17439;48.092;11.842;2023-02-21T15:14:45;95438.28;;;16.27;40.90
30682;BME280;17439;48.092;11.842;2023-02-21T15:17:17;95445.06;;;16.33;39.40
30682;BME280;17439;48.092;11.842;2023-02-21T15:19:45;95436.44;;;16.31;40.77
30682;BME280;17439;48.092;11.842;2023-02-21T15:22:23;95432.47;;;16.29;39.90
30682;BME280;17439;48.092;11.842;2023-02-21T15:24:57;95433.50;;;16.24;39.87